sensor_id;sensor_type;location;lat;lon;timestamp;P1;durP1;ratioP1;P2;durP2;ratioP2
15624;SDS011;7912;51.376;6.126;2024-03-08T00:01:22;17.83;;;15.10;;
15624;SDS011;7912;51.376;6.126;2024-03-08T00:03:49;19.60;;;15.77;;
15624;SDS011;7912;51.376;6.126;2024-03-08T00:06:18;19.57;;;15.63;;
15624;SDS011;7912;51.376;6.126;2024-03-08T00:08:45;17.57;;;15.10;;
15624;SDS011;7912;51.376;6.126;2024-03-08T00:11:13;17.40;;;15.40;;
15624;SDS011;7912;51.376;6.126;2024-03-08T00:13:40;16.17;;;14.23;;
15624;SDS011;7912;51.376;6.126;2024-03-08T00:16:08;19.10;;;15.93;;
15624;SDS011;7912;51.376;6.126;2024-03-08T00:18:36;18.07;;;15.53;;
15624;SDS011;7912;51.376;6.126;2024-03-08T00:21:03;16.97;;;14.43;;
15624;SDS011;7912;51.376;6.126;2024-03-08T00:23:31;16.70;;;14.77;;
15624;SDS011;7912;51.376;6.126;2024-03-08T00:26:00;16.93;;;15.13;;
15624;SDS011;7912;51.376;6.126;2024-03-08T00:28:27;17.63;;;15.53;;
15624;SDS011;7912;51.376;6.126;2024-03-08T00:30:54;19.50;;;15.43;;
15624;SDS011;7912;51.376;6.126;2024-03-08T00:33:22;17.27;;;15.20;;
15624;SDS011;7912;51.376;6.126;2024-03-08T00:35:49;18.27;;;15.27;;
15624;SDS011;7912;51.376;6.126;2024-03-08T00:38:16;17.20;;;15.17;;
15624;SDS011;7912;51.376;6.126;2024-03-08T00:40:45;19.07;;;15.73;;
15624;SDS011;7912;51.376;6.126;2024-03-08T00:43:12;19.87;;;15.60;;
15624;SDS011;7912;51.376;6.126;2024-03-08T00:45:40;19.20;;;15.60;;
15624;SDS011;7912;51.376;6.126;2024-03-08T00:48:09;18.00;;;15.67;;
15624;SDS011;7912;51.376;6.126;2024-03-08T00:50:37;16.43;;;14.63;;
15624;SDS011;7912;51.376;6.126;2024-03-08T00:53:05;19.77;;;16.23;;
15624;SDS011;7912;51.376;6.126;2024-03-08T00:55:32;19.33;;;15.83;;
15624;SDS011;7912;51.376;6.126;2024-03-08T00:58:04;17.60;;;15.47;;
15624;SDS011;7912;51.376;6.126;2024-03-08T01:00:32;20.17;;;15.50;;
15624;SDS011;7912;51.376;6.126;2024-03-08T01:02:59;17.17;;;15.20;;
15624;SDS011;7912;51.376;6.126;2024-03-08T01:05:27;20.27;;;15.83;;
15624;SDS011;7912;51.376;6.126;2024-03-08T01:07:54;19.23;;;16.43;;
15624;SDS011;7912;51.376;6.126;2024-03-08T01:10:21;21.30;;;16.23;;
15624;SDS011;7912;51.376;6.126;2024-03-08T01:12:49;20.97;;;17.23;;
15624;SDS011;7912;51.376;6.126;2024-03-08T01:15:16;18.60;;;16.00;;
15624;SDS011;7912;51.376;6.126;2024-03-08T01:17:43;20.00;;;16.73;;
15624;SDS011;7912;51.376;6.126;2024-03-08T01:20:11;20.07;;;15.83;;
15624;SDS011;7912;51.376;6.126;2024-03-08T01:22:40;18.40;;;15.87;;
15624;SDS011;7912;51.376;6.126;2024-03-08T01:25:08;18.43;;;15.67;;
15624;SDS011;7912;51.376;6.126;2024-03-08T01:27:35;19.23;;;16.47;;
15624;SDS011;7912;51.376;6.126;2024-03-08T01:30:03;18.83;;;15.97;;
15624;SDS011;7912;51.376;6.126;2024-03-08T01:32:31;17.57;;;15.50;;
15624;SDS011;7912;51.376;6.126;2024-03-08T01:34:59;20.67;;;17.00;;
15624;SDS011;7912;51.376;6.126;2024-03-08T01:37:26;18.77;;;15.90;;
15624;SDS011;7912;51.376;6.126;2024-03-08T01:39:53;19.30;;;16.13;;
15624;SDS011;7912;51.376;6.126;2024-03-08T01:42:20;20.93;;;16.77;;
15624;SDS011;7912;51.376;6.126;2024-03-08T01:44:48;19.70;;;16.07;;
15624;SDS011;7912;51.376;6.126;2024-03-08T01:47:16;18.57;;;16.10;;
15624;SDS011;7912;51.376;6.126;2024-03-08T01:49:43;19.70;;;16.80;;
15624;SDS011;7912;51.376;6.126;2024-03-08T01:52:11;20.10;;;16.67;;
15624;SDS011;7912;51.376;6.126;2024-03-08T01:54:39;19.13;;;16.30;;
15624;SDS011;7912;51.376;6.126;2024-03-08T01:57:07;19.70;;;16.33;;
15624;SDS011;7912;51.376;6.126;2024-03-08T01:59:35;20.63;;;17.03;;
15624;SDS011;7912;51.376;6.126;2024-03-08T02:02:02;19.33;;;16.37;;
15624;SDS011;7912;51.376;6.126;2024-03-08T02:04:32;19.80;;;16.33;;
15624;SDS011;7912;51.376;6.126;2024-03-08T02:06:59;19.73;;;16.00;;
15624;SDS011;7912;51.376;6.126;2024-03-08T02:09:27;19.50;;;16.77;;
15624;SDS011;7912;51.376;6.126;2024-03-08T02:11:54;19.00;;;16.90;;
15624;SDS011;7912;51.376;6.126;2024-03-08T02:14:23;19.37;;;16.30;;
15624;SDS011;7912;51.376;6.126;2024-03-08T02:16:51;20.03;;;17.33;;
15624;SDS011;7912;51.376;6.126;2024-03-08T02:19:18;19.03;;;17.00;;
15624;SDS011;7912;51.376;6.126;2024-03-08T02:21:46;19.00;;;16.50;;
15624;SDS011;7912;51.376;6.126;2024-03-08T02:24:14;23.60;;;17.77;;
15624;SDS011;7912;51.376;6.126;2024-03-08T02:26:41;21.10;;;17.73;;
15624;SDS011;7912;51.376;6.126;2024-03-08T02:29:09;19.30;;;16.67;;
15624;SDS011;7912;51.376;6.126;2024-03-08T02:31:36;19.67;;;16.77;;
15624;SDS011;7912;51.376;6.126;2024-03-08T02:34:05;21.33;;;16.63;;
15624;SDS011;7912;51.376;6.126;2024-03-08T02:36:32;21.97;;;17.33;;
15624;SDS011;7912;51.376;6.126;2024-03-08T02:39:02;21.77;;;18.30;;
15624;SDS011;7912;51.376;6.126;2024-03-08T02:41:30;20.37;;;17.27;;
15624;SDS011;7912;51.376;6.126;2024-03-08T02:43:59;21.37;;;17.50;;
15624;SDS011;7912;51.376;6.126;2024-03-08T02:46:26;21.07;;;17.57;;
15624;SDS011;7912;51.376;6.126;2024-03-08T02:48:53;20.23;;;17.57;;
15624;SDS011;7912;51.376;6.126;2024-03-08T02:51:21;22.93;;;17.37;;
15624;SDS011;7912;51.376;6.126;2024-03-08T02:53:48;19.53;;;16.80;;
15624;SDS011;7912;51.376;6.126;2024-03-08T02:56:18;21.23;;;17.93;;
15624;SDS011;7912;51.376;6.126;2024-03-08T02:58:45;21.27;;;17.47;;
15624;SDS011;7912;51.376;6.126;2024-03-08T03:01:15;18.80;;;16.17;;
15624;SDS011;7912;51.376;6.126;2024-03-08T03:03:42;20.77;;;17.10;;
15624;SDS011;7912;51.376;6.126;2024-03-08T03:06:09;21.73;;;17.10;;
15624;SDS011;7912;51.376;6.126;2024-03-08T03:08:38;21.37;;;18.30;;
15624;SDS011;7912;51.376;6.126;2024-03-08T03:11:05;19.87;;;16.90;;
15624;SDS011;7912;51.376;6.126;2024-03-08T03:13:33;20.23;;;17.67;;
15624;SDS011;7912;51.376;6.126;2024-03-08T03:16:01;24.23;;;18.87;;
15624;SDS011;7912;51.376;6.126;2024-03-08T03:18:29;21.67;;;17.67;;
15624;SDS011;7912;51.376;6.126;2024-03-08T03:20:59;21.23;;;17.73;;
15624;SDS011;7912;51.376;6.126;2024-03-08T03:23:33;24.60;;;18.63;;
15624;SDS011;7912;51.376;6.126;2024-03-08T03:26:01;23.00;;;17.20;;
15624;SDS011;7912;51.376;6.126;2024-03-08T03:28:28;23.33;;;18.23;;
15624;SDS011;7912;51.376;6.126;2024-03-08T03:30:56;21.63;;;17.60;;
15624;SDS011;7912;51.376;6.126;2024-03-08T03:33:25;23.70;;;18.10;;
15624;SDS011;7912;51.376;6.126;2024-03-08T03:35:52;22.07;;;18.33;;
15624;SDS011;7912;51.376;6.126;2024-03-08T03:38:23;22.30;;;17.77;;
15624;SDS011;7912;51.376;6.126;2024-03-08T03:40:52;20.30;;;18.10;;
15624;SDS011;7912;51.376;6.126;2024-03-08T03:43:23;22.20;;;19.67;;
15624;SDS011;7912;51.376;6.126;2024-03-08T03:45:52;23.00;;;18.97;;
15624;SDS011;7912;51.376;6.126;2024-03-08T03:48:20;24.07;;;19.53;;
15624;SDS011;7912;51.376;6.126;2024-03-08T03:50:48;25.07;;;19.63;;
15624;SDS011;7912;51.376;6.126;2024-03-08T03:53:16;26.50;;;19.83;;
15624;SDS011;7912;51.376;6.126;2024-03-08T03:55:43;21.83;;;18.77;;
15624;SDS011;7912;51.376;6.126;2024-03-08T03:58:13;24.17;;;18.83;;
15624;SDS011;7912;51.376;6.126;2024-03-08T04:00:42;26.13;;;18.90;;
15624;SDS011;7912;51.376;6.126;2024-03-08T04:03:09;23.50;;;18.37;;
15624;SDS011;7912;51.376;6.126;2024-03-08T04:05:36;24.80;;;18.77;;
15624;SDS011;7912;51.376;6.126;2024-03-08T04:08:04;25.63;;;20.00;;
15624;SDS011;7912;51.376;6.126;2024-03-08T04:10:32;22.93;;;18.37;;
15624;SDS011;7912;51.376;6.126;2024-03-08T04:12:59;25.90;;;19.70;;
15624;SDS011;7912;51.376;6.126;2024-03-08T04:15:27;24.57;;;19.70;;
15624;SDS011;7912;51.376;6.126;2024-03-08T04:17:54;23.50;;;19.30;;
15624;SDS011;7912;51.376;6.126;2024-03-08T04:20:21;25.23;;;19.43;;
15624;SDS011;7912;51.376;6.126;2024-03-08T04:22:48;24.77;;;19.67;;
15624;SDS011;7912;51.376;6.126;2024-03-08T04:25:16;25.60;;;19.13;;
15624;SDS011;7912;51.376;6.126;2024-03-08T04:27:44;26.43;;;19.77;;
15624;SDS011;7912;51.376;6.126;2024-03-08T04:30:12;23.80;;;19.07;;
15624;SDS011;7912;51.376;6.126;2024-03-08T04:32:39;25.13;;;19.80;;
15624;SDS011;7912;51.376;6.126;2024-03-08T04:35:08;25.40;;;19.93;;
15624;SDS011;7912;51.376;6.126;2024-03-08T04:37:35;25.80;;;20.00;;
15624;SDS011;7912;51.376;6.126;2024-03-08T04:40:03;25.07;;;19.90;;
15624;SDS011;7912;51.376;6.126;2024-03-08T04:42:31;26.27;;;19.57;;
15624;SDS011;7912;51.376;6.126;2024-03-08T04:44:59;25.80;;;20.00;;
15624;SDS011;7912;51.376;6.126;2024-03-08T04:47:27;24.83;;;19.50;;
15624;SDS011;7912;51.376;6.126;2024-03-08T04:49:55;23.40;;;19.37;;
15624;SDS011;7912;51.376;6.126;2024-03-08T04:52:23;23.57;;;19.60;;
15624;SDS011;7912;51.376;6.126;2024-03-08T04:54:50;25.57;;;19.73;;
15624;SDS011;7912;51.376;6.126;2024-03-08T04:57:17;27.20;;;20.00;;
15624;SDS011;7912;51.376;6.126;2024-03-08T04:59:45;26.97;;;19.70;;
15624;SDS011;7912;51.376;6.126;2024-03-08T05:02:13;25.43;;;20.13;;
15624;SDS011;7912;51.376;6.126;2024-03-08T05:04:41;26.53;;;20.53;;
15624;SDS011;7912;51.376;6.126;2024-03-08T05:07:09;24.10;;;19.87;;
15624;SDS011;7912;51.376;6.126;2024-03-08T05:09:36;25.37;;;20.07;;
15624;SDS011;7912;51.376;6.126;2024-03-08T05:12:04;24.80;;;21.03;;
15624;SDS011;7912;51.376;6.126;2024-03-08T05:14:32;26.60;;;21.30;;
15624;SDS011;7912;51.376;6.126;2024-03-08T05:17:01;25.13;;;20.73;;
15624;SDS011;7912;51.376;6.126;2024-03-08T05:19:29;28.13;;;21.77;;
15624;SDS011;7912;51.376;6.126;2024-03-08T05:22:00;26.57;;;20.67;;
15624;SDS011;7912;51.376;6.126;2024-03-08T05:24:28;25.13;;;20.27;;
15624;SDS011;7912;51.376;6.126;2024-03-08T05:26:56;27.43;;;21.27;;
15624;SDS011;7912;51.376;6.126;2024-03-08T05:29:26;28.03;;;21.20;;
15624;SDS011;7912;51.376;6.126;2024-03-08T05:31:53;28.10;;;21.57;;
15624;SDS011;7912;51.376;6.126;2024-03-08T05:34:21;29.50;;;22.07;;
15624;SDS011;7912;51.376;6.126;2024-03-08T05:36:49;28.10;;;21.40;;
15624;SDS011;7912;51.376;6.126;2024-03-08T05:39:17;28.73;;;22.00;;
15624;SDS011;7912;51.376;6.126;2024-03-08T05:41:46;28.07;;;21.70;;
15624;SDS011;7912;51.376;6.126;2024-03-08T05:44:14;29.07;;;22.10;;
15624;SDS011;7912;51.376;6.126;2024-03-08T05:46:44;27.27;;;21.37;;
15624;SDS011;7912;51.376;6.126;2024-03-08T05:49:15;27.03;;;21.80;;
15624;SDS011;7912;51.376;6.126;2024-03-08T05:51:42;29.13;;;22.13;;
15624;SDS011;7912;51.376;6.126;2024-03-08T05:54:10;26.67;;;22.70;;
15624;SDS011;7912;51.376;6.126;2024-03-08T05:56:43;28.93;;;21.70;;
15624;SDS011;7912;51.376;6.126;2024-03-08T05:59:12;29.53;;;22.90;;
15624;SDS011;7912;51.376;6.126;2024-03-08T06:01:40;27.83;;;22.63;;
15624;SDS011;7912;51.376;6.126;2024-03-08T06:04:08;30.10;;;22.47;;
15624;SDS011;7912;51.376;6.126;2024-03-08T06:06:40;28.77;;;22.87;;
15624;SDS011;7912;51.376;6.126;2024-03-08T06:09:08;30.00;;;23.77;;
15624;SDS011;7912;51.376;6.126;2024-03-08T06:11:39;30.43;;;22.33;;
15624;SDS011;7912;51.376;6.126;2024-03-08T06:14:06;29.33;;;23.33;;
15624;SDS011;7912;51.376;6.126;2024-03-08T06:16:34;28.23;;;22.93;;
15624;SDS011;7912;51.376;6.126;2024-03-08T06:19:02;30.93;;;23.67;;
15624;SDS011;7912;51.376;6.126;2024-03-08T06:21:30;32.03;;;23.10;;
15624;SDS011;7912;51.376;6.126;2024-03-08T06:23:59;30.63;;;22.90;;
15624;SDS011;7912;51.376;6.126;2024-03-08T06:26:26;30.17;;;22.20;;
15624;SDS011;7912;51.376;6.126;2024-03-08T06:28:58;30.43;;;22.57;;
15624;SDS011;7912;51.376;6.126;2024-03-08T06:31:27;26.53;;;21.73;;
15624;SDS011;7912;51.376;6.126;2024-03-08T06:33:55;30.70;;;22.80;;
15624;SDS011;7912;51.376;6.126;2024-03-08T06:36:23;29.13;;;22.70;;
15624;SDS011;7912;51.376;6.126;2024-03-08T06:38:51;30.60;;;22.97;;
15624;SDS011;7912;51.376;6.126;2024-03-08T06:41:18;32.60;;;22.43;;
15624;SDS011;7912;51.376;6.126;2024-03-08T06:43:46;28.93;;;22.13;;
15624;SDS011;7912;51.376;6.126;2024-03-08T06:46:15;29.90;;;22.77;;
15624;SDS011;7912;51.376;6.126;2024-03-08T06:48:43;31.13;;;23.77;;
15624;SDS011;7912;51.376;6.126;2024-03-08T06:51:14;32.73;;;23.23;;
15624;SDS011;7912;51.376;6.126;2024-03-08T06:53:42;32.23;;;23.67;;
15624;SDS011;7912;51.376;6.126;2024-03-08T06:56:09;30.37;;;22.47;;
15624;SDS011;7912;51.376;6.126;2024-03-08T06:58:36;29.70;;;22.27;;
15624;SDS011;7912;51.376;6.126;2024-03-08T07:01:04;31.77;;;23.23;;
15624;SDS011;7912;51.376;6.126;2024-03-08T07:03:34;29.87;;;22.33;;
15624;SDS011;7912;51.376;6.126;2024-03-08T07:06:02;30.33;;;24.20;;
15624;SDS011;7912;51.376;6.126;2024-03-08T07:08:34;31.17;;;23.60;;
15624;SDS011;7912;51.376;6.126;2024-03-08T07:11:01;31.57;;;23.07;;
15624;SDS011;7912;51.376;6.126;2024-03-08T07:13:30;29.30;;;21.23;;
15624;SDS011;7912;51.376;6.126;2024-03-08T07:15:57;32.13;;;23.57;;
15624;SDS011;7912;51.376;6.126;2024-03-08T07:18:27;30.83;;;22.53;;
15624;SDS011;7912;51.376;6.126;2024-03-08T07:20:57;29.87;;;23.47;;
15624;SDS011;7912;51.376;6.126;2024-03-08T07:23:24;30.53;;;23.00;;
15624;SDS011;7912;51.376;6.126;2024-03-08T07:26:21;28.80;;;22.10;;
15624;SDS011;7912;51.376;6.126;2024-03-08T07:28:49;30.67;;;22.57;;
15624;SDS011;7912;51.376;6.126;2024-03-08T07:31:16;30.63;;;22.20;;
15624;SDS011;7912;51.376;6.126;2024-03-08T07:33:44;32.07;;;23.20;;
15624;SDS011;7912;51.376;6.126;2024-03-08T07:36:12;27.70;;;21.50;;
15624;SDS011;7912;51.376;6.126;2024-03-08T07:38:41;31.17;;;22.50;;
15624;SDS011;7912;51.376;6.126;2024-03-08T07:41:09;31.33;;;23.50;;
15624;SDS011;7912;51.376;6.126;2024-03-08T07:43:38;31.13;;;22.90;;
15624;SDS011;7912;51.376;6.126;2024-03-08T07:46:06;32.77;;;23.60;;
15624;SDS011;7912;51.376;6.126;2024-03-08T07:48:35;29.83;;;22.77;;
15624;SDS011;7912;51.376;6.126;2024-03-08T07:51:03;30.07;;;23.47;;
15624;SDS011;7912;51.376;6.126;2024-03-08T07:53:31;31.60;;;23.70;;
15624;SDS011;7912;51.376;6.126;2024-03-08T07:55:58;33.33;;;24.27;;
15624;SDS011;7912;51.376;6.126;2024-03-08T07:58:26;29.03;;;23.10;;
15624;SDS011;7912;51.376;6.126;2024-03-08T08:00:55;33.00;;;23.67;;
15624;SDS011;7912;51.376;6.126;2024-03-08T08:03:22;30.97;;;23.80;;
15624;SDS011;7912;51.376;6.126;2024-03-08T08:05:49;32.50;;;23.40;;
15624;SDS011;7912;51.376;6.126;2024-03-08T08:08:16;31.13;;;23.27;;
15624;SDS011;7912;51.376;6.126;2024-03-08T08:10:44;29.77;;;22.57;;
15624;SDS011;7912;51.376;6.126;2024-03-08T08:13:12;29.63;;;21.47;;
15624;SDS011;7912;51.376;6.126;2024-03-08T08:15:39;27.10;;;21.93;;
15624;SDS011;7912;51.376;6.126;2024-03-08T08:18:06;30.53;;;22.53;;
15624;SDS011;7912;51.376;6.126;2024-03-08T08:20:36;31.93;;;22.53;;
15624;SDS011;7912;51.376;6.126;2024-03-08T08:23:04;29.87;;;23.23;;
15624;SDS011;7912;51.376;6.126;2024-03-08T08:25:31;32.80;;;23.57;;
15624;SDS011;7912;51.376;6.126;2024-03-08T08:28:03;27.90;;;22.00;;
15624;SDS011;7912;51.376;6.126;2024-03-08T08:30:31;29.03;;;22.17;;
15624;SDS011;7912;51.376;6.126;2024-03-08T08:33:01;30.37;;;22.90;;
15624;SDS011;7912;51.376;6.126;2024-03-08T08:35:29;29.63;;;21.23;;
15624;SDS011;7912;51.376;6.126;2024-03-08T08:37:56;27.23;;;21.33;;
15624;SDS011;7912;51.376;6.126;2024-03-08T08:40:25;30.03;;;21.43;;
15624;SDS011;7912;51.376;6.126;2024-03-08T08:42:55;26.60;;;20.57;;
15624;SDS011;7912;51.376;6.126;2024-03-08T08:45:26;28.23;;;21.33;;
15624;SDS011;7912;51.376;6.126;2024-03-08T08:47:53;26.67;;;20.43;;
15624;SDS011;7912;51.376;6.126;2024-03-08T08:50:21;27.10;;;21.10;;
15624;SDS011;7912;51.376;6.126;2024-03-08T08:52:50;28.33;;;21.10;;
15624;SDS011;7912;51.376;6.126;2024-03-08T08:55:18;26.73;;;20.63;;
15624;SDS011;7912;51.376;6.126;2024-03-08T08:57:48;28.07;;;20.67;;
15624;SDS011;7912;51.376;6.126;2024-03-08T09:00:15;26.07;;;20.50;;
15624;SDS011;7912;51.376;6.126;2024-03-08T09:02:45;25.27;;;20.33;;
15624;SDS011;7912;51.376;6.126;2024-03-08T09:05:13;25.63;;;20.30;;
15624;SDS011;7912;51.376;6.126;2024-03-08T09:07:43;25.90;;;20.70;;
15624;SDS011;7912;51.376;6.126;2024-03-08T09:10:11;27.30;;;21.03;;
15624;SDS011;7912;51.376;6.126;2024-03-08T09:12:43;26.83;;;21.20;;
15624;SDS011;7912;51.376;6.126;2024-03-08T09:15:11;26.40;;;19.23;;
15624;SDS011;7912;51.376;6.126;2024-03-08T09:17:39;22.90;;;18.97;;
15624;SDS011;7912;51.376;6.126;2024-03-08T09:20:08;22.53;;;18.73;;
15624;SDS011;7912;51.376;6.126;2024-03-08T09:22:37;22.40;;;18.73;;
15624;SDS011;7912;51.376;6.126;2024-03-08T09:25:07;23.27;;;19.13;;
15624;SDS011;7912;51.376;6.126;2024-03-08T09:27:36;23.17;;;18.37;;
15624;SDS011;7912;51.376;6.126;2024-03-08T09:30:05;23.87;;;18.43;;
15624;SDS011;7912;51.376;6.126;2024-03-08T09:32:34;23.93;;;20.37;;
15624;SDS011;7912;51.376;6.126;2024-03-08T09:35:03;23.93;;;19.93;;
15624;SDS011;7912;51.376;6.126;2024-03-08T09:37:34;24.80;;;19.93;;
15624;SDS011;7912;51.376;6.126;2024-03-08T09:40:02;24.13;;;18.33;;
15624;SDS011;7912;51.376;6.126;2024-03-08T09:42:36;23.50;;;18.50;;
15624;SDS011;7912;51.376;6.126;2024-03-08T09:45:10;22.33;;;18.97;;
15624;SDS011;7912;51.376;6.126;2024-03-08T09:47:42;24.83;;;19.47;;
15624;SDS011;7912;51.376;6.126;2024-03-08T09:50:12;21.23;;;17.83;;
15624;SDS011;7912;51.376;6.126;2024-03-08T09:52:39;21.60;;;17.73;;
15624;SDS011;7912;51.376;6.126;2024-03-08T09:55:07;19.53;;;17.10;;
15624;SDS011;7912;51.376;6.126;2024-03-08T09:57:38;19.43;;;16.53;;
15624;SDS011;7912;51.376;6.126;2024-03-08T10:00:06;19.43;;;17.03;;
15624;SDS011;7912;51.376;6.126;2024-03-08T10:03:01;21.63;;;16.07;;
15624;SDS011;7912;51.376;6.126;2024-03-08T10:05:31;17.80;;;15.67;;
15624;SDS011;7912;51.376;6.126;2024-03-08T10:07:59;18.83;;;16.37;;
15624;SDS011;7912;51.376;6.126;2024-03-08T10:10:27;17.90;;;15.30;;
15624;SDS011;7912;51.376;6.126;2024-03-08T10:12:55;18.53;;;15.17;;
15624;SDS011;7912;51.376;6.126;2024-03-08T10:15:23;17.20;;;15.03;;
15624;SDS011;7912;51.376;6.126;2024-03-08T10:17:50;17.00;;;14.43;;
15624;SDS011;7912;51.376;6.126;2024-03-08T10:20:19;16.23;;;13.50;;
15624;SDS011;7912;51.376;6.126;2024-03-08T10:22:57;14.90;;;13.33;;
15624;SDS011;7912;51.376;6.126;2024-03-08T10:25:37;15.43;;;13.70;;
15624;SDS011;7912;51.376;6.126;2024-03-08T10:28:05;15.87;;;13.27;;
15624;SDS011;7912;51.376;6.126;2024-03-08T10:30:33;14.90;;;12.33;;
15624;SDS011;7912;51.376;6.126;2024-03-08T10:33:00;15.63;;;13.43;;
15624;SDS011;7912;51.376;6.126;2024-03-08T10:35:29;14.83;;;13.23;;
15624;SDS011;7912;51.376;6.126;2024-03-08T10:37:56;17.77;;;13.57;;
15624;SDS011;7912;51.376;6.126;2024-03-08T10:40:29;14.80;;;12.77;;
15624;SDS011;7912;51.376;6.126;2024-03-08T10:42:59;14.30;;;12.57;;
15624;SDS011;7912;51.376;6.126;2024-03-08T10:45:39;14.43;;;12.93;;
15624;SDS011;7912;51.376;6.126;2024-03-08T10:51:03;13.53;;;12.13;;
15624;SDS011;7912;51.376;6.126;2024-03-08T10:53:31;15.00;;;13.23;;
15624;SDS011;7912;51.376;6.126;2024-03-08T10:56:03;15.03;;;12.80;;
15624;SDS011;7912;51.376;6.126;2024-03-08T10:58:31;13.63;;;12.17;;
15624;SDS011;7912;51.376;6.126;2024-03-08T11:01:01;14.20;;;12.70;;
15624;SDS011;7912;51.376;6.126;2024-03-08T11:06:15;13.80;;;12.30;;
15624;SDS011;7912;51.376;6.126;2024-03-08T11:08:56;13.97;;;12.47;;
15624;SDS011;7912;51.376;6.126;2024-03-08T11:13:59;14.80;;;13.30;;
15624;SDS011;7912;51.376;6.126;2024-03-08T11:18:59;14.73;;;12.87;;
15624;SDS011;7912;51.376;6.126;2024-03-08T11:21:57;13.27;;;11.87;;
15624;SDS011;7912;51.376;6.126;2024-03-08T11:24:25;14.47;;;12.07;;
15624;SDS011;7912;51.376;6.126;2024-03-08T11:26:56;13.43;;;12.03;;
15624;SDS011;7912;51.376;6.126;2024-03-08T11:32:12;13.07;;;11.67;;
15624;SDS011;7912;51.376;6.126;2024-03-08T11:34:47;13.17;;;11.73;;
15624;SDS011;7912;51.376;6.126;2024-03-08T11:37:19;12.17;;;10.97;;
15624;SDS011;7912;51.376;6.126;2024-03-08T11:39:48;14.47;;;12.30;;
15624;SDS011;7912;51.376;6.126;2024-03-08T11:42:18;11.97;;;10.63;;
15624;SDS011;7912;51.376;6.126;2024-03-08T11:44:46;11.93;;;10.73;;
15624;SDS011;7912;51.376;6.126;2024-03-08T11:47:14;11.83;;;9.87;;
15624;SDS011;7912;51.376;6.126;2024-03-08T11:49:43;11.90;;;10.73;;
15624;SDS011;7912;51.376;6.126;2024-03-08T11:52:11;12.57;;;10.73;;
15624;SDS011;7912;51.376;6.126;2024-03-08T11:55:01;12.50;;;11.07;;
15624;SDS011;7912;51.376;6.126;2024-03-08T11:57:28;12.50;;;11.20;;
15624;SDS011;7912;51.376;6.126;2024-03-08T11:59:56;12.10;;;10.90;;
15624;SDS011;7912;51.376;6.126;2024-03-08T12:02:25;11.10;;;9.97;;
15624;SDS011;7912;51.376;6.126;2024-03-08T12:04:56;12.03;;;10.83;;
15624;SDS011;7912;51.376;6.126;2024-03-08T12:07:31;11.47;;;10.37;;
15624;SDS011;7912;51.376;6.126;2024-03-08T12:10:16;13.67;;;11.63;;
15624;SDS011;7912;51.376;6.126;2024-03-08T12:12:49;12.73;;;10.77;;
15624;SDS011;7912;51.376;6.126;2024-03-08T12:15:22;11.00;;;9.87;;
15624;SDS011;7912;51.376;6.126;2024-03-08T12:17:51;11.00;;;9.93;;
15624;SDS011;7912;51.376;6.126;2024-03-08T12:20:21;11.87;;;10.67;;
15624;SDS011;7912;51.376;6.126;2024-03-08T12:22:52;11.63;;;10.07;;
15624;SDS011;7912;51.376;6.126;2024-03-08T12:25:26;11.60;;;10.23;;
15624;SDS011;7912;51.376;6.126;2024-03-08T12:28:06;12.57;;;11.27;;
15624;SDS011;7912;51.376;6.126;2024-03-08T12:30:46;12.70;;;10.80;;
15624;SDS011;7912;51.376;6.126;2024-03-08T12:33:21;11.90;;;10.60;;
15624;SDS011;7912;51.376;6.126;2024-03-08T12:35:52;11.47;;;10.27;;
15624;SDS011;7912;51.376;6.126;2024-03-08T12:38:22;11.07;;;9.83;;
15624;SDS011;7912;51.376;6.126;2024-03-08T12:40:56;12.53;;;11.23;;
15624;SDS011;7912;51.376;6.126;2024-03-08T12:43:25;11.40;;;10.30;;
15624;SDS011;7912;51.376;6.126;2024-03-08T12:45:57;11.60;;;10.40;;
15624;SDS011;7912;51.376;6.126;2024-03-08T12:48:25;11.07;;;9.97;;
15624;SDS011;7912;51.376;6.126;2024-03-08T12:50:52;12.10;;;10.80;;
15624;SDS011;7912;51.376;6.126;2024-03-08T12:53:21;11.43;;;10.33;;
15624;SDS011;7912;51.376;6.126;2024-03-08T12:55:52;12.67;;;10.60;;
15624;SDS011;7912;51.376;6.126;2024-03-08T12:58:19;12.17;;;10.87;;
15624;SDS011;7912;51.376;6.126;2024-03-08T13:00:47;11.63;;;10.53;;
15624;SDS011;7912;51.376;6.126;2024-03-08T13:03:19;11.90;;;10.70;;
15624;SDS011;7912;51.376;6.126;2024-03-08T13:05:47;11.30;;;10.20;;
15624;SDS011;7912;51.376;6.126;2024-03-08T13:08:15;11.43;;;10.33;;
15624;SDS011;7912;51.376;6.126;2024-03-08T13:10:44;10.33;;;9.33;;
15624;SDS011;7912;51.376;6.126;2024-03-08T13:13:12;11.33;;;10.13;;
15624;SDS011;7912;51.376;6.126;2024-03-08T13:15:43;11.10;;;10.00;;
15624;SDS011;7912;51.376;6.126;2024-03-08T13:18:10;10.83;;;9.63;;
15624;SDS011;7912;51.376;6.126;2024-03-08T13:20:37;11.37;;;10.17;;
15624;SDS011;7912;51.376;6.126;2024-03-08T13:23:13;10.67;;;9.57;;
15624;SDS011;7912;51.376;6.126;2024-03-08T13:25:41;10.97;;;9.87;;
15624;SDS011;7912;51.376;6.126;2024-03-08T13:28:08;11.90;;;10.27;;
15624;SDS011;7912;51.376;6.126;2024-03-08T13:30:37;10.60;;;9.60;;
15624;SDS011;7912;51.376;6.126;2024-03-08T13:33:04;10.87;;;9.73;;
15624;SDS011;7912;51.376;6.126;2024-03-08T13:35:33;10.47;;;9.37;;
15624;SDS011;7912;51.376;6.126;2024-03-08T13:38:01;10.93;;;9.83;;
15624;SDS011;7912;51.376;6.126;2024-03-08T13:40:30;10.97;;;9.83;;
15624;SDS011;7912;51.376;6.126;2024-03-08T13:43:00;11.30;;;10.20;;
15624;SDS011;7912;51.376;6.126;2024-03-08T13:45:28;11.03;;;9.80;;
15624;SDS011;7912;51.376;6.126;2024-03-08T13:47:58;10.50;;;9.47;;
15624;SDS011;7912;51.376;6.126;2024-03-08T13:50:26;10.80;;;9.53;;
15624;SDS011;7912;51.376;6.126;2024-03-08T13:52:53;10.50;;;9.57;;
15624;SDS011;7912;51.376;6.126;2024-03-08T13:55:22;11.70;;;10.33;;
15624;SDS011;7912;51.376;6.126;2024-03-08T13:57:53;11.10;;;10.00;;
15624;SDS011;7912;51.376;6.126;2024-03-08T14:00:21;10.10;;;9.10;;
15624;SDS011;7912;51.376;6.126;2024-03-08T14:02:49;11.03;;;9.87;;
15624;SDS011;7912;51.376;6.126;2024-03-08T14:05:16;10.57;;;9.47;;
15624;SDS011;7912;51.376;6.126;2024-03-08T14:07:46;11.27;;;10.17;;
15624;SDS011;7912;51.376;6.126;2024-03-08T14:10:16;12.40;;;10.30;;
15624;SDS011;7912;51.376;6.126;2024-03-08T14:12:49;9.87;;;8.87;;
15624;SDS011;7912;51.376;6.126;2024-03-08T14:15:17;10.87;;;9.77;;
15624;SDS011;7912;51.376;6.126;2024-03-08T14:17:44;11.23;;;9.63;;
15624;SDS011;7912;51.376;6.126;2024-03-08T14:20:19;9.90;;;9.00;;
15624;SDS011;7912;51.376;6.126;2024-03-08T14:22:49;10.13;;;9.13;;
15624;SDS011;7912;51.376;6.126;2024-03-08T14:25:17;10.70;;;9.60;;
15624;SDS011;7912;51.376;6.126;2024-03-08T14:27:46;12.67;;;9.67;;
15624;SDS011;7912;51.376;6.126;2024-03-08T14:30:13;10.03;;;9.03;;
15624;SDS011;7912;51.376;6.126;2024-03-08T14:32:58;9.60;;;8.70;;
15624;SDS011;7912;51.376;6.126;2024-03-08T14:35:26;10.47;;;9.20;;
15624;SDS011;7912;51.376;6.126;2024-03-08T14:37:53;10.43;;;9.37;;
15624;SDS011;7912;51.376;6.126;2024-03-08T14:40:21;10.43;;;9.40;;
15624;SDS011;7912;51.376;6.126;2024-03-08T14:42:52;10.53;;;9.37;;
15624;SDS011;7912;51.376;6.126;2024-03-08T14:45:20;9.73;;;8.83;;
15624;SDS011;7912;51.376;6.126;2024-03-08T14:47:47;10.53;;;9.53;;
15624;SDS011;7912;51.376;6.126;2024-03-08T14:50:19;9.80;;;8.80;;
15624;SDS011;7912;51.376;6.126;2024-03-08T14:52:52;9.33;;;8.43;;
15624;SDS011;7912;51.376;6.126;2024-03-08T14:55:19;11.50;;;9.27;;
15624;SDS011;7912;51.376;6.126;2024-03-08T14:57:49;9.60;;;8.60;;
15624;SDS011;7912;51.376;6.126;2024-03-08T15:00:20;9.57;;;8.67;;